createdAt,value
2018-05-09T00:02:06.180Z,16.61
2018-05-09T00:04:34.599Z,16.62
2018-05-09T00:07:03.083Z,16.59
2018-05-09T00:09:31.524Z,16.53
2018-05-09T00:11:59.985Z,16.43
2018-05-09T00:14:28.429Z,16.40
2018-05-09T00:16:56.857Z,16.37
2018-05-09T00:19:25.273Z,16.35
2018-05-09T00:21:53.779Z,16.25
2018-05-09T00:24:22.194Z,16.25
2018-05-09T00:26:50.606Z,16.24
2018-05-09T00:29:19.075Z,16.24
2018-05-09T00:31:47.484Z,16.21
2018-05-09T00:34:15.913Z,16.14
2018-05-09T00:36:44.366Z,16.16
2018-05-09T00:39:12.783Z,16.16
2018-05-09T00:41:41.265Z,16.08
2018-05-09T00:44:09.687Z,16.14
2018-05-09T00:46:38.115Z,16.19
2018-05-09T00:49:06.536Z,16.23
2018-05-09T00:51:34.996Z,16.26
2018-05-09T00:54:15.113Z,16.24
2018-05-09T00:56:43.570Z,16.20
2018-05-09T00:59:11.997Z,16.16
2018-05-09T01:01:40.406Z,16.18
2018-05-09T01:04:08.880Z,16.18
2018-05-09T01:06:37.306Z,16.19
2018-05-09T01:09:05.752Z,16.13
2018-05-09T01:11:34.245Z,16.16
2018-05-09T01:14:02.669Z,16.14
2018-05-09T01:16:31.079Z,16.12
2018-05-09T01:18:59.542Z,16.09
2018-05-09T01:21:27.956Z,15.99
2018-05-09T01:23:56.396Z,16.03
2018-05-09T01:26:24.966Z,15.96
2018-05-09T01:28:53.416Z,15.89
2018-05-09T01:31:21.833Z,15.90
2018-05-09T01:33:50.280Z,15.88
2018-05-09T01:36:18.714Z,15.77
2018-05-09T01:38:47.150Z,15.70
2018-05-09T01:41:15.630Z,15.70
2018-05-09T01:43:44.054Z,15.67
2018-05-09T01:46:12.491Z,15.60
2018-05-09T01:48:40.963Z,15.61
2018-05-09T01:51:09.374Z,15.62
2018-05-09T01:53:37.783Z,15.60
2018-05-09T01:56:06.244Z,15.61
2018-05-09T01:58:34.644Z,15.51
2018-05-09T02:01:03.068Z,15.50
2018-05-09T02:03:31.525Z,15.46
2018-05-09T02:05:59.982Z,15.39
2018-05-09T02:08:28.380Z,15.35
2018-05-09T02:10:56.864Z,15.33
2018-05-09T02:13:25.284Z,15.26
2018-05-09T02:15:53.708Z,15.15
2018-05-09T02:18:22.197Z,15.11
2018-05-09T02:20:50.658Z,15.10
2018-05-09T02:23:19.060Z,15.05
2018-05-09T02:25:47.558Z,15.03
2018-05-09T02:28:15.970Z,14.97
2018-05-09T02:30:44.386Z,14.95
2018-05-09T02:33:12.850Z,14.95
2018-05-09T02:35:41.265Z,14.94
2018-05-09T02:38:09.696Z,15.02
2018-05-09T02:40:38.187Z,15.01
2018-05-09T02:43:06.599Z,14.97
2018-05-09T02:45:35.015Z,15.02
2018-05-09T02:48:03.478Z,15.04
2018-05-09T02:50:31.905Z,15.03
2018-05-09T02:53:00.326Z,15.00
2018-05-09T02:55:28.797Z,15.01
2018-05-09T02:57:57.594Z,15.00
2018-05-09T03:00:26.000Z,14.98
2018-05-09T03:02:54.470Z,14.96
2018-05-09T03:05:22.905Z,14.89
2018-05-09T03:07:51.330Z,14.86
2018-05-09T03:10:19.800Z,14.81
2018-05-09T03:12:48.215Z,14.80
2018-05-09T03:15:16.633Z,14.78
2018-05-09T03:17:45.082Z,14.81
2018-05-09T03:20:13.497Z,14.80
2018-05-09T03:22:41.913Z,14.78
2018-05-09T03:25:10.352Z,14.83
2018-05-09T03:27:38.785Z,14.85
2018-05-09T03:30:07.192Z,14.86
2018-05-09T03:32:35.640Z,14.88
2018-05-09T03:35:04.083Z,14.89
2018-05-09T03:37:32.543Z,14.88
2018-05-09T03:40:01.042Z,14.87
2018-05-09T03:42:29.452Z,14.88
2018-05-09T03:44:57.868Z,14.87
2018-05-09T03:47:26.324Z,14.81
2018-05-09T03:49:54.737Z,14.81
2018-05-09T03:52:23.146Z,14.78
2018-05-09T03:54:51.616Z,14.86
2018-05-09T03:57:20.038Z,14.84
2018-05-09T03:59:48.473Z,14.86
2018-05-09T04:02:28.636Z,14.86
2018-05-09T04:05:08.761Z,14.79
2018-05-09T04:07:48.891Z,14.77
2018-05-09T04:10:17.306Z,14.67
2018-05-09T04:12:45.729Z,14.67
2018-05-09T04:15:14.184Z,14.70
2018-05-09T04:17:42.598Z,14.72
2018-05-09T04:20:11.030Z,14.74
2018-05-09T04:22:39.501Z,14.73
2018-05-09T04:25:07.911Z,14.59
2018-05-09T04:27:36.325Z,14.39
2018-05-09T04:30:04.789Z,14.40
2018-05-09T04:32:33.232Z,14.55
2018-05-09T04:35:01.662Z,14.61
2018-05-09T04:37:30.112Z,14.48
2018-05-09T04:39:58.592Z,14.51
2018-05-09T04:42:27.021Z,14.70
2018-05-09T04:44:55.492Z,14.70
2018-05-09T04:47:23.916Z,14.51
2018-05-09T04:49:52.329Z,14.54
2018-05-09T04:52:20.797Z,14.50
2018-05-09T04:54:49.204Z,14.47
2018-05-09T04:57:17.651Z,14.34
2018-05-09T04:59:46.106Z,14.38
2018-05-09T05:02:14.524Z,14.41
2018-05-09T05:04:42.937Z,14.46
2018-05-09T05:07:11.417Z,14.56
2018-05-09T05:09:39.853Z,14.61
2018-05-09T05:12:08.276Z,14.71
2018-05-09T05:14:36.912Z,14.85
2018-05-09T05:17:05.328Z,15.05
2018-05-09T05:19:33.750Z,15.24
2018-05-09T05:22:02.209Z,15.28
2018-05-09T05:24:30.620Z,15.27
2018-05-09T05:26:59.103Z,15.29
2018-05-09T05:29:27.551Z,15.35
2018-05-09T05:31:55.967Z,15.45
2018-05-09T05:34:24.380Z,15.44
2018-05-09T05:36:52.848Z,15.50
2018-05-09T05:39:21.264Z,15.52
2018-05-09T05:41:49.688Z,15.59
2018-05-09T05:44:18.187Z,15.70
2018-05-09T05:46:46.621Z,15.91
2018-05-09T05:49:15.075Z,16.12
2018-05-09T05:51:43.532Z,16.24
2018-05-09T05:54:11.946Z,16.37
2018-05-09T05:56:40.360Z,16.51
2018-05-09T05:59:08.833Z,16.56
2018-05-09T06:01:37.245Z,16.76
2018-05-09T06:04:05.665Z,16.85
2018-05-09T06:06:34.146Z,17.03
2018-05-09T06:09:02.568Z,17.21
2018-05-09T06:11:31.009Z,17.28
2018-05-09T06:13:59.479Z,17.39
2018-05-09T06:16:27.927Z,17.56
2018-05-09T06:18:56.333Z,17.76
2018-05-09T06:21:24.804Z,17.89
2018-05-09T06:23:53.280Z,17.96
2018-05-09T06:26:21.664Z,18.12
2018-05-09T06:28:50.136Z,18.20
2018-05-09T06:31:18.553Z,18.32
2018-05-09T06:33:46.964Z,18.44
2018-05-09T06:36:15.480Z,18.45
2018-05-09T06:38:43.897Z,18.53
2018-05-09T06:41:12.305Z,18.57
2018-05-09T06:43:40.780Z,18.61
2018-05-09T06:46:09.205Z,18.58
2018-05-09T06:48:37.616Z,18.76
2018-05-09T06:51:06.077Z,19.06
2018-05-09T06:53:34.491Z,19.19
2018-05-09T06:56:02.924Z,19.22
2018-05-09T06:58:31.385Z,19.28
2018-05-09T07:00:59.819Z,19.42
2018-05-09T07:03:28.268Z,19.61
2018-05-09T07:05:56.733Z,19.93
2018-05-09T07:08:25.158Z,19.94
2018-05-09T07:10:53.576Z,20.17
2018-05-09T07:13:22.027Z,20.19
2018-05-09T07:15:50.432Z,20.37
2018-05-09T07:18:18.840Z,20.50
2018-05-09T07:20:47.288Z,20.47
2018-05-09T07:23:15.721Z,20.59
2018-05-09T07:25:44.144Z,20.64
2018-05-09T07:28:12.626Z,20.80
2018-05-09T07:30:41.052Z,20.92
2018-05-09T07:33:09.483Z,21.02
2018-05-09T07:35:37.957Z,21.19
2018-05-09T07:38:06.396Z,21.25
2018-05-09T07:40:34.800Z,21.39
2018-05-09T07:43:03.268Z,21.59
2018-05-09T07:45:31.676Z,21.64
2018-05-09T07:48:00.124Z,21.79
2018-05-09T07:50:28.592Z,21.88
2018-05-09T07:52:57.009Z,22.01
2018-05-09T07:55:25.485Z,22.14
2018-05-09T07:57:53.902Z,22.16
2018-05-09T08:00:22.317Z,22.28
2018-05-09T08:02:50.728Z,22.57
2018-05-09T08:05:19.195Z,22.72
2018-05-09T08:07:47.601Z,22.77
2018-05-09T08:10:16.019Z,22.89
2018-05-09T08:12:44.475Z,23.03
2018-05-09T08:15:12.880Z,23.20
2018-05-09T08:17:41.309Z,23.31
2018-05-09T08:20:09.761Z,23.49
2018-05-09T08:22:38.169Z,23.63
2018-05-09T08:25:06.582Z,23.75
2018-05-09T08:27:35.029Z,23.96
2018-05-09T08:30:03.468Z,23.99
2018-05-09T08:32:31.884Z,24.14
2018-05-09T08:35:00.346Z,24.23
2018-05-09T08:37:28.761Z,24.33
2018-05-09T08:39:57.176Z,24.47
2018-05-09T08:42:25.633Z,24.72
2018-05-09T08:44:54.055Z,24.81
2018-05-09T08:47:22.480Z,24.96
2018-05-09T08:49:50.941Z,25.08
2018-05-09T08:52:19.360Z,24.89
2018-05-09T08:54:47.777Z,24.92
2018-05-09T08:57:16.253Z,25.03
2018-05-09T08:59:45.022Z,25.13
2018-05-09T09:02:13.440Z,25.13
2018-05-09T09:04:41.907Z,24.96
2018-05-09T09:07:10.328Z,24.99
2018-05-09T09:09:38.736Z,24.86
2018-05-09T09:12:07.195Z,24.79
2018-05-09T09:14:35.609Z,24.78
2018-05-09T09:17:04.089Z,24.75
2018-05-09T09:19:32.561Z,24.75
2018-05-09T09:22:00.972Z,24.82
2018-05-09T09:24:29.392Z,24.80
2018-05-09T09:26:57.852Z,24.74
2018-05-09T09:29:26.264Z,24.80
2018-05-09T09:31:54.684Z,24.84
2018-05-09T09:34:23.303Z,24.94
2018-05-09T09:36:51.716Z,25.08
2018-05-09T09:39:20.129Z,25.10
2018-05-09T09:41:48.618Z,25.11
2018-05-09T09:44:17.062Z,25.11
2018-05-09T09:46:45.479Z,25.32
2018-05-09T09:49:13.934Z,25.59
2018-05-09T09:51:42.357Z,25.83
2018-05-09T09:54:10.780Z,25.83
2018-05-09T09:56:39.312Z,25.95
2018-05-09T09:59:07.746Z,25.98
2018-05-09T10:01:36.273Z,26.00
2018-05-09T10:04:04.656Z,25.95
2018-05-09T10:06:33.104Z,25.99
2018-05-09T10:09:01.537Z,26.13
2018-05-09T10:11:30.011Z,26.39
2018-05-09T10:13:58.421Z,26.66
2018-05-09T10:16:26.842Z,26.96
2018-05-09T10:18:55.311Z,27.01
2018-05-09T10:21:23.721Z,26.79
2018-05-09T10:23:52.141Z,26.63
2018-05-09T10:26:20.592Z,26.54
2018-05-09T10:28:49.016Z,26.49
2018-05-09T10:31:17.485Z,26.51
2018-05-09T10:33:46.012Z,26.62
2018-05-09T10:36:14.421Z,26.77
2018-05-09T10:38:42.829Z,26.72
2018-05-09T10:41:11.534Z,26.89
2018-05-09T10:43:39.974Z,27.13
2018-05-09T10:46:08.392Z,27.23
2018-05-09T10:48:36.860Z,27.24
2018-05-09T10:51:05.273Z,27.15
2018-05-09T10:53:33.698Z,27.22
2018-05-09T10:56:02.156Z,27.17
2018-05-09T10:58:30.564Z,27.04
2018-05-09T11:00:58.989Z,27.07
2018-05-09T11:03:27.448Z,27.09
2018-05-09T11:05:55.857Z,27.04
2018-05-09T11:08:24.265Z,27.05
2018-05-09T11:10:52.742Z,27.03
2018-05-09T11:13:21.161Z,26.96
2018-05-09T11:15:49.581Z,26.99
2018-05-09T11:18:18.135Z,27.04
2018-05-09T11:20:46.551Z,27.11
2018-05-09T11:23:14.992Z,27.04
2018-05-09T11:25:43.459Z,26.92
2018-05-09T11:28:11.878Z,26.99
2018-05-09T11:30:40.305Z,27.00
2018-05-09T11:33:09.009Z,27.02
2018-05-09T11:35:37.424Z,27.05
2018-05-09T11:38:05.832Z,27.18
2018-05-09T11:40:34.332Z,27.03
2018-05-09T11:43:02.746Z,27.01
2018-05-09T11:45:31.161Z,27.04
2018-05-09T11:47:59.645Z,27.22
2018-05-09T11:50:28.065Z,27.26
2018-05-09T11:52:56.478Z,27.29
2018-05-09T11:55:24.953Z,27.40
2018-05-09T11:57:53.372Z,27.38
2018-05-09T12:00:21.790Z,27.38
2018-05-09T12:02:50.236Z,27.51
2018-05-09T12:05:18.641Z,27.63
2018-05-09T12:07:47.061Z,27.78
2018-05-09T12:10:15.582Z,27.70
2018-05-09T12:12:43.973Z,27.55
2018-05-09T12:15:12.385Z,27.57
2018-05-09T12:17:40.939Z,27.35
2018-05-09T12:20:09.353Z,27.13
2018-05-09T12:22:37.773Z,27.10
2018-05-09T12:25:06.242Z,26.98
2018-05-09T12:27:34.658Z,27.09
2018-05-09T12:30:03.101Z,27.17
2018-05-09T12:32:31.566Z,27.38
2018-05-09T12:35:00.008Z,27.53
2018-05-09T12:37:28.416Z,27.58
2018-05-09T12:39:56.879Z,27.54
2018-05-09T12:42:25.298Z,27.45
2018-05-09T12:44:53.739Z,27.42
2018-05-09T12:47:22.206Z,27.39
2018-05-09T12:49:50.617Z,27.53
2018-05-09T12:52:19.028Z,27.61
2018-05-09T12:54:47.492Z,27.49
2018-05-09T12:57:15.918Z,27.30
2018-05-09T12:59:44.345Z,27.40
2018-05-09T13:02:12.804Z,27.41
2018-05-09T13:04:41.222Z,27.36
2018-05-09T13:07:09.655Z,27.14
2018-05-09T13:09:38.148Z,27.11
2018-05-09T13:12:06.570Z,27.06
2018-05-09T13:14:34.993Z,26.95
2018-05-09T13:17:04.014Z,27.06
2018-05-09T13:19:32.440Z,27.18
2018-05-09T13:22:00.857Z,27.34
2018-05-09T13:24:29.368Z,27.46
2018-05-09T13:26:57.812Z,27.41
2018-05-09T13:29:26.236Z,27.21
2018-05-09T13:31:54.692Z,27.06
2018-05-09T13:34:23.109Z,27.23
2018-05-09T13:36:51.524Z,27.23
2018-05-09T13:39:19.982Z,27.23
2018-05-09T13:41:48.398Z,27.18
2018-05-09T13:44:16.828Z,27.29
2018-05-09T13:46:45.288Z,27.17
2018-05-09T13:49:13.725Z,27.08
2018-05-09T13:51:42.148Z,27.00
2018-05-09T13:54:10.625Z,27.09
2018-05-09T13:56:39.067Z,27.18
2018-05-09T13:59:07.476Z,27.31
2018-05-09T14:01:35.941Z,27.45
2018-05-09T14:04:04.353Z,27.46
2018-05-09T14:06:32.780Z,27.40
2018-05-09T14:09:01.260Z,27.34
2018-05-09T14:11:29.685Z,27.41
2018-05-09T14:13:58.152Z,27.41
2018-05-09T14:16:26.621Z,27.39
2018-05-09T14:18:55.047Z,27.35
2018-05-09T14:21:23.484Z,27.25
2018-05-09T14:23:51.975Z,27.25
2018-05-09T14:26:20.431Z,27.23
2018-05-09T14:28:48.944Z,27.21
2018-05-09T14:31:17.417Z,27.04
2018-05-09T14:33:45.830Z,27.04
2018-05-09T14:36:14.259Z,26.89
2018-05-09T14:38:42.734Z,26.71
2018-05-09T14:41:11.144Z,26.57
2018-05-09T14:43:39.567Z,26.51
2018-05-09T14:46:08.027Z,26.42
2018-05-09T14:48:36.449Z,26.37
2018-05-09T14:51:04.880Z,26.30
2018-05-09T14:53:33.354Z,26.30
2018-05-09T14:56:01.824Z,26.26
2018-05-09T14:58:30.262Z,26.28
2018-05-09T15:00:58.757Z,26.28
2018-05-09T15:03:27.165Z,26.22
2018-05-09T15:05:55.574Z,26.24
2018-05-09T15:08:24.019Z,26.18
2018-05-09T15:10:52.437Z,26.13
2018-05-09T15:13:20.871Z,26.12
2018-05-09T15:15:49.320Z,26.10
2018-05-09T15:18:17.724Z,26.14
2018-05-09T15:20:46.132Z,26.15
2018-05-09T15:23:14.657Z,26.17
2018-05-09T15:25:43.076Z,26.10
2018-05-09T15:28:11.517Z,26.13
2018-05-09T15:30:39.979Z,26.07
2018-05-09T15:33:08.388Z,26.01
2018-05-09T15:35:36.804Z,25.96
2018-05-09T15:38:05.253Z,25.93
2018-05-09T15:40:34.077Z,25.95
2018-05-09T15:43:02.559Z,25.87
2018-05-09T15:45:31.049Z,25.88
2018-05-09T15:47:59.475Z,25.85
2018-05-09T15:50:27.909Z,25.85
2018-05-09T15:52:56.372Z,25.82
2018-05-09T15:55:24.800Z,25.76
2018-05-09T15:57:53.220Z,25.71
2018-05-09T16:00:21.693Z,25.71
2018-05-09T16:02:50.113Z,25.71
2018-05-09T16:05:18.532Z,25.60
2018-05-09T16:07:47.021Z,25.54
2018-05-09T16:10:15.444Z,25.49
2018-05-09T16:12:43.933Z,25.46
2018-05-09T16:15:12.409Z,25.39
2018-05-09T16:17:40.829Z,25.35
2018-05-09T16:20:09.253Z,25.37
2018-05-09T16:22:37.770Z,25.27
2018-05-09T16:25:06.201Z,25.24
2018-05-09T16:27:34.624Z,25.16
2018-05-09T16:30:03.121Z,25.14
2018-05-09T16:32:31.553Z,25.14
2018-05-09T16:34:59.974Z,25.12
2018-05-09T16:37:28.424Z,25.03
2018-05-09T16:39:56.875Z,25.02
2018-05-09T16:42:25.289Z,24.94
2018-05-09T16:44:53.738Z,24.91
2018-05-09T16:47:22.192Z,24.88
2018-05-09T16:49:50.621Z,24.80
2018-05-09T16:52:19.107Z,24.82
2018-05-09T16:54:47.541Z,24.80
2018-05-09T16:57:15.960Z,24.72
2018-05-09T16:59:44.452Z,24.62
2018-05-09T17:02:12.854Z,24.63
2018-05-09T17:04:41.271Z,24.58
2018-05-09T17:07:09.739Z,24.49
2018-05-09T17:09:38.169Z,24.42
2018-05-09T17:12:06.612Z,24.34
2018-05-09T17:14:35.090Z,24.22
2018-05-09T17:17:03.517Z,24.16
2018-05-09T17:19:31.929Z,24.07
2018-05-09T17:25:07.023Z,23.92
2018-05-09T17:27:35.509Z,23.86
2018-05-09T17:30:03.989Z,23.87
2018-05-09T17:32:32.463Z,23.83
2018-05-09T17:35:00.904Z,23.80
2018-05-09T17:37:29.333Z,23.72
2018-05-09T17:39:57.757Z,23.67
2018-05-09T17:42:26.309Z,23.64
2018-05-09T17:44:54.672Z,23.64
2018-05-09T17:47:23.092Z,23.62
2018-05-09T17:49:51.548Z,23.60
2018-05-09T17:52:19.974Z,23.60
2018-05-09T17:54:48.393Z,23.59
2018-05-09T17:57:16.840Z,23.53
2018-05-09T17:59:45.248Z,23.43
2018-05-09T18:02:13.681Z,23.46
2018-05-09T18:04:42.131Z,23.40
2018-05-09T18:07:10.540Z,23.41
2018-05-09T18:09:38.957Z,23.38
2018-05-09T18:12:07.429Z,23.33
2018-05-09T18:14:35.832Z,23.32
2018-05-09T18:17:04.248Z,23.24
2018-05-09T18:19:32.721Z,23.19
2018-05-09T18:22:01.517Z,23.15
2018-05-09T18:24:29.928Z,23.08
2018-05-09T18:26:58.389Z,22.98
2018-05-09T18:29:26.798Z,22.88
2018-05-09T18:31:55.216Z,22.83
2018-05-09T18:34:23.668Z,22.78
2018-05-09T18:36:52.083Z,22.82
2018-05-09T18:39:20.505Z,22.74
2018-05-09T18:41:48.979Z,22.70
2018-05-09T18:44:17.503Z,22.73
2018-05-09T18:46:45.867Z,22.71
2018-05-09T18:49:14.334Z,22.65
2018-05-09T18:51:42.769Z,22.63
2018-05-09T18:54:11.292Z,22.65
2018-05-09T18:56:39.676Z,22.62
2018-05-09T18:59:08.099Z,22.58
2018-05-09T19:01:36.509Z,22.55
2018-05-09T19:04:04.989Z,22.48
2018-05-09T19:06:33.463Z,22.46
2018-05-09T19:09:01.857Z,22.41
2018-05-09T19:11:30.325Z,22.40
2018-05-09T19:13:58.737Z,22.37
2018-05-09T19:16:27.238Z,22.30
2018-05-09T19:18:55.636Z,22.27
2018-05-09T19:21:24.073Z,22.18
2018-05-09T19:23:52.484Z,22.08
2018-05-09T19:26:20.941Z,22.03
2018-05-09T19:28:49.361Z,21.96
2018-05-09T19:31:17.779Z,21.89
2018-05-09T19:33:46.246Z,21.83
2018-05-09T19:36:14.660Z,21.69
2018-05-09T19:38:43.101Z,21.61
2018-05-09T19:41:11.589Z,21.49
2018-05-09T19:43:40.004Z,21.43
2018-05-09T19:46:08.422Z,21.39
2018-05-09T19:48:36.905Z,21.34
2018-05-09T19:51:05.363Z,21.17
2018-05-09T19:53:33.778Z,21.14
2018-05-09T19:56:02.238Z,21.11
2018-05-09T19:58:30.656Z,21.07
2018-05-09T20:00:59.094Z,21.06
2018-05-09T20:03:27.565Z,21.07
2018-05-09T20:05:55.989Z,21.05
2018-05-09T20:08:24.428Z,21.04
2018-05-09T20:10:52.889Z,20.99
2018-05-09T20:13:21.299Z,20.93
2018-05-09T20:15:49.730Z,20.89
2018-05-09T20:18:18.200Z,20.88
2018-05-09T20:20:46.614Z,20.84
2018-05-09T20:23:15.037Z,20.80
2018-05-09T20:25:43.516Z,20.72
2018-05-09T20:28:11.945Z,20.66
2018-05-09T20:30:46.049Z,20.59
2018-05-09T20:33:14.504Z,20.55
2018-05-09T20:35:42.912Z,20.51
2018-05-09T20:38:11.372Z,20.50
2018-05-09T20:40:39.809Z,20.45
2018-05-09T20:43:08.220Z,20.40
2018-05-09T20:45:36.824Z,20.28
2018-05-09T20:48:05.274Z,20.32
2018-05-09T20:50:33.689Z,20.25
2018-05-09T20:53:02.147Z,20.27
2018-05-09T20:55:38.248Z,20.25
2018-05-09T20:58:06.813Z,20.20
2018-05-09T21:00:35.222Z,20.21
2018-05-09T21:03:03.636Z,20.18
2018-05-09T21:05:32.208Z,20.16
2018-05-09T21:08:00.649Z,20.16
2018-05-09T21:10:29.073Z,20.15
2018-05-09T21:12:57.568Z,20.17
2018-05-09T21:15:25.990Z,20.11
2018-05-09T21:17:54.416Z,20.13
2018-05-09T21:20:22.864Z,20.13
2018-05-09T21:22:51.267Z,20.13
2018-05-09T21:25:19.695Z,20.07
2018-05-09T21:27:48.214Z,20.03
2018-05-09T21:30:16.633Z,20.06
2018-05-09T21:32:45.049Z,20.06
2018-05-09T21:35:13.509Z,19.92
2018-05-09T21:37:41.924Z,19.93
2018-05-09T21:40:10.341Z,19.88
2018-05-09T21:42:38.799Z,19.75
2018-05-09T21:45:07.233Z,19.60
2018-05-09T21:47:35.644Z,19.49
2018-05-09T21:50:04.151Z,19.30
2018-05-09T21:52:32.569Z,19.12
2018-05-09T21:55:00.993Z,19.14
2018-05-09T21:57:29.462Z,18.99
2018-05-09T21:59:57.888Z,18.88
2018-05-09T22:02:26.301Z,18.98
2018-05-09T22:04:54.766Z,18.84
2018-05-09T22:07:23.196Z,18.87
2018-05-09T22:09:51.617Z,18.72
2018-05-09T22:12:20.070Z,18.69
2018-05-09T22:14:48.485Z,18.71
2018-05-09T22:17:16.940Z,18.74
2018-05-09T22:19:45.399Z,18.69
2018-05-09T22:22:13.821Z,18.51
2018-05-09T22:24:42.229Z,18.33
2018-05-09T22:27:10.715Z,18.16
2018-05-09T22:29:39.135Z,18.36
2018-05-09T22:32:07.552Z,18.49
2018-05-09T22:34:36.018Z,18.48
2018-05-09T22:37:04.453Z,18.48
2018-05-09T22:39:32.868Z,18.35
2018-05-09T22:42:01.345Z,18.36
2018-05-09T22:44:29.775Z,18.37
2018-05-09T22:46:58.204Z,18.44
2018-05-09T22:49:26.676Z,18.49
2018-05-09T22:51:55.106Z,18.53
2018-05-09T22:54:23.531Z,18.55
2018-05-09T22:56:52.006Z,18.59
2018-05-09T22:59:20.419Z,18.53
2018-05-09T23:01:48.834Z,18.48
2018-05-09T23:04:17.286Z,18.46
2018-05-09T23:06:45.704Z,18.47
2018-05-09T23:09:14.121Z,18.43
2018-05-09T23:11:48.355Z,18.33
2018-05-09T23:14:16.776Z,18.34
2018-05-09T23:16:45.263Z,18.32
2018-05-09T23:19:13.744Z,18.17
2018-05-09T23:21:42.165Z,18.27
2018-05-09T23:24:10.632Z,18.30
2018-05-09T23:26:39.056Z,18.26
2018-05-09T23:29:07.478Z,18.23
2018-05-09T23:31:35.946Z,18.01
2018-05-09T23:34:04.377Z,17.87
2018-05-09T23:36:32.865Z,17.90
2018-05-09T23:39:01.322Z,17.79
2018-05-09T23:41:29.737Z,17.85
2018-05-09T23:43:58.153Z,17.68
2018-05-09T23:46:26.606Z,17.59
2018-05-09T23:48:55.025Z,17.54
2018-05-09T23:51:23.452Z,17.45
2018-05-09T23:53:51.911Z,17.41
2018-05-09T23:56:20.328Z,17.37
2018-05-09T23:58:48.745Z,17.33
